METAR Analyzer

一覧表示

Hello, Guest. (Login)

RJSN/KIJ  -  新潟

観測日時
2021-01-27 00:00 (UTC) (78分前)
気温
6
露点
6
湿数
0
相対湿度
100%
QNH
1015hPa
推定現地気圧
1014.9hPa
推定海面気圧
1015.0hPa
体感温度
-6.5
(無風時)
9
HI
5.3
気温前日比
+3
体感温度前日比
-13.4
HI前日比
+3.8
水平視程
5000m
鉛直視程
データなし
雲底高度
2000ft AGL
V/I
VMC (VFR)
RVR
No RVR data
卓越風
8kt from 170°
ガスト
No gust
降水
弱いしゅう雨性の雨
その他の天気
もや
少しの雲 @ 100ft AGL / 散在する雲 @ 1000ft AGL / 隙間のある雲 @ 2000ft AGL

RJSN 270000Z 17008KT 5000 -SHRA BR FEW001 SCT010 BKN020 06/06 Q1015

株式会社マネーパートナーズ 【Manepa Card】

RJNT/TOY  -  富山

観測日時
2021-01-27 00:00 (UTC) (78分前)
気温
6
露点
6
湿数
0
相対湿度
100%
QNH
1017hPa
推定現地気圧
1014.2hPa
推定海面気圧
1017.1hPa
体感温度
0.7
(無風時)
9
HI
5.3
気温前日比
-3
体感温度前日比
-1
HI前日比
-2
水平視程
8000m
鉛直視程
データなし
雲底高度
3000ft AGL
V/I
VMC (VFR)
RVR
No RVR data
卓越風
2kt from VRB
ガスト
No gust
降水
弱いしゅう雨性の雨
その他の天気
地霧 / もや
少しの雲 @ 300ft AGL / 散在する雲 @ 800ft AGL / 隙間のある雲 @ 3000ft AGL

RJNT 270000Z VRB02KT 8000 -SHRA MIFG BR FEW003 SCT008 BKN030 06/06 Q1017

RJNW/NTQ  -  能登

観測日時
2021-01-27 00:00 (UTC) (78分前)
気温
6
露点
5
湿数
1
相対湿度
93.3%
QNH
1016hPa
推定現地気圧
989.9hPa
推定海面気圧
1016.7hPa
体感温度
-0.9
(無風時)
9.1
HI
5.1
気温前日比
+1
体感温度前日比
+4.5
HI前日比
+1.3
水平視程
>10000m
鉛直視程
データなし
雲底高度
3000ft AGL
V/I
VMC (VFR)
RVR
No RVR data
卓越風
3kt from 290° (250° ~ 340°)
ガスト
No gust
降水
弱いしゅう雨性の雨
その他の天気
報告なし
少しの雲 @ 1000ft AGL / 散在する雲 @ 2000ft AGL / 隙間のある雲 @ 3000ft AGL

RJNW 270000Z 29003KT 250V340 9999 -SHRA FEW010 SCT020 BKN030 06/05 Q1016

RJNK/KMQ  -  小松

観測日時
2021-01-27 00:00 (UTC) (78分前)
気温
11
露点
6
湿数
5
相対湿度
71.2%
QNH
1018hPa
推定現地気圧
1017.2hPa
推定海面気圧
1018.1hPa
体感温度
-0.1
(無風時)
13.4
HI
10
気温前日比
+7
体感温度前日比
+2.9
HI前日比
+7.3
水平視程
>10000m
鉛直視程
データなし
雲底高度
5000ft AGL
V/I
VMC (VFR)
RVR
No RVR data
卓越風
12kt from 330°
ガスト
No gust
降水
報告なし
その他の天気
報告なし
少しの雲 @ 1000ft AGL / 散在する雲 @ 3000ft AGL / 隙間のある雲 @ 5000ft AGL

RJNK 270000Z 33012KT 9999 FEW010 SCT030 BKN050 11/06 Q1018

RJAF/MMJ  -  松本

観測日時
2021-01-27 00:00 (UTC) (78分前)
気温
6
露点
4
湿数
2
相対湿度
87%
QNH
1013hPa
推定現地気圧
936.5hPa
推定海面気圧
1014.2hPa
体感温度
-0.6
(無風時)
9.3
HI
4.9
気温前日比
+7
体感温度前日比
+6.4
HI前日比
+7.5
水平視程
>10000m
鉛直視程
データなし
雲底高度
2000ft AGL
V/I
VMC (VFR)
RVR
No RVR data
卓越風
3kt from 320° (240° ~ 360°)
ガスト
No gust
降水
報告なし
その他の天気
報告なし
少しの雲 @ 300ft AGL / 散在する雲 @ 1500ft AGL / 隙間のある雲 @ 2000ft AGL

RJAF 270000Z 32003KT 240V360 9999 FEW003 SCT015 BKN020 06/04 Q1013

30.8msec